• Join FlightAware (Why Join?)
  • Login
  • US Flag 
09:37PM EDT


 

Airport Tracker/Info


-or-


 

Live Flight TrackerFlight Track Log ✈ N589H ✈ 26-Jan-2014 ✈ KBWI - KPIE

Flight Track Log - Related Links

Times and Time Zones

All times are in EST time to prevent confusion due to time zone crossing. See the N589H flight status page for this flight to view local times or setup timezone preferences in your user account.

Time Position Orientation Groundspeed Altitude Reporting Facility
EST Latitude Longitude Course Direction KTS MPH feet Rate Location/Type
06:04PM 39.1833 -76.6000 14° North 194 223 2,400  Level Potomac TRACON
06:05PM 39.2333 -76.5833 14° North 206 237 4,300 1,980 Climbing Potomac TRACON
06:06PM 39.2500 -76.6333 293° West 138 159 6,400 1,680 Climbing Potomac TRACON
06:08PM 39.2431 -76.7708 266° West 171 197 10,000 1,500 Climbing Washington Center
06:09PM 39.2500 -76.8167 281° West 195 224 11,000 1,140 Climbing Potomac TRACON
06:10PM 39.2667 -76.8833 288° West 219 252 12,000 300 Climbing Potomac TRACON
06:12PM 39.2731 -77.0794 272° West 247 284 12,100 480 Climbing Washington Center
06:13PM 39.2203 -77.1319 218° Southwest 218 251 13,600 1,500 Climbing Washington Center
06:14PM 39.1575 -77.1628 201° Southwest 211 243 15,100 1,560 Climbing Washington Center
06:15PM 39.1108 -77.2128 220° Southwest 224 258 16,700 1,560 Climbing Washington Center
06:16PM 39.0644 -77.2650 221° Southwest 224 258 18,300 1,500 Climbing Washington Center
06:17PM 38.9953 -77.2903 196° South 242 278 19,800 1,500 Climbing Washington Center
06:18PM 38.9139 -77.2883 179° South 263 303 21,300 1,500 Climbing Washington Center
06:19PM 38.8328 -77.2811 176° South 277 319 22,900 840 Climbing Washington Center
06:20PM 38.7636 -77.3142 200° South 277 319 23,000  Climbing Washington Center
06:21PM 38.6919 -77.3631 208° Southwest 282 325 23,000 720 Level Washington Center
06:22PM 38.6286 -77.4172 214° Southwest 287 330 24,500 1,560 Climbing Washington Center
06:23PM 38.5775 -77.4719 220° Southwest 272 313 26,200 3,660 Climbing Washington Center
06:24PM 38.5269 -77.5211 217° Southwest 248 285 32,000 1,500 Climbing Washington Center
06:25PM 38.4803 -77.5703 220° Southwest 236 272 29,200 -780 Descending Washington Center
06:26PM 38.4356 -77.6194 221° Southwest 225 259 30,500 1,260 Climbing Washington Center
06:27PM 38.3911 -77.6631 218° Southwest 220 253 31,800 720 Climbing Washington Center
06:28PM 38.3444 -77.6989 211° Southwest 213 245 32,000 60 Climbing Washington Center
06:29PM 38.2833 -77.7394 208° Southwest 229 264 32,000  Level Washington Center
06:30PM 38.2178 -77.7853 209° Southwest 254 292 32,000  Level Washington Center
06:31PM 38.1481 -77.8333 208° Southwest 273 314 32,000 180 Level Washington Center
06:32PM 38.0764 -77.8814 208° Southwest 285 328 32,400 480 Climbing Washington Center
06:33PM 38.0108 -77.9269 209° Southwest 290 334 33,000 240 Climbing Washington Center
06:34PM 37.9392 -77.9694 205° Southwest 285 328 33,000 240 Level Washington Center
06:35PM 37.8714 -78.0197 210° Southwest 290 334 33,600 600 Climbing Washington Center
06:36PM 37.8058 -78.0650 209° Southwest 285 328 34,200 600 Climbing Washington Center
06:37PM 37.7381 -78.1075 206° Southwest 285 328 34,800 540 Climbing Washington Center
06:38PM 37.6747 -78.1525 209° Southwest 278 320 35,300 480 Climbing Washington Center
06:39PM 37.6153 -78.1978 211° Southwest 266 306 35,800 480 Climbing Washington Center
06:40PM 37.5433 -78.2450 207° Southwest 261 300 36,300 480 Climbing Washington Center
06:41PM 37.4817 -78.2900 210° Southwest 261 300 36,800 420 Climbing Washington Center
06:42PM 37.4183 -78.3322 208° Southwest 261 300 37,200 300 Climbing Washington Center
06:43PM 37.3547 -78.3744 208° Southwest 261 300 37,500 300 Climbing Washington Center
06:44PM 37.2911 -78.4164 208° Southwest 266 306 37,900 240 Climbing Washington Center
06:45PM 37.2339 -78.4536 207° Southwest 266 306 38,000  Climbing Washington Center
06:46PM 37.1639 -78.5003 208° Southwest 271 312 38,000  Level Washington Center
06:47PM 37.0961 -78.5447 208° Southwest 271 312 38,000  Level Washington Center
06:48PM 37.0283 -78.5889 207° Southwest 276 318 38,000  Level Washington Center
06:49PM 36.9519 -78.6406 208° Southwest 276 318 38,000  Level Washington Center
06:50PM 36.8817 -78.6872 208° Southwest 276 318 38,000  Level Washington Center
06:51PM 36.8117 -78.7336 208° Southwest 281 323 38,000  Level Washington Center
06:52PM 36.7417 -78.7775 207° Southwest 286 329 38,000  Level Washington Center
06:53PM 36.6694 -78.8236 207° Southwest 291 335 38,000  Level Washington Center
06:54PM 36.6078 -78.8703 211° Southwest 291 335 38,000  Level Washington Center
06:55PM 36.5356 -78.9189 208° Southwest 291 335 38,000  Level Washington Center
06:56PM 36.4656 -78.9625 207° Southwest 291 335 38,000  Level Washington Center
06:57PM 36.3953 -79.0083 208° Southwest 291 335 38,000  Level Washington Center
06:58PM 36.3231 -79.0542 207° Southwest 291 335 38,000  Level Washington Center
06:59PM 36.2528 -79.1000 208° Southwest 291 335 38,000  Level Washington Center
07:00PM 36.1806 -79.1483 208° Southwest 291 335 38,000  Level Washington Center
07:01PM 36.1103 -79.1939 208° Southwest 291 335 38,000  Level Washington Center
07:02PM 36.0378 -79.2394 207° Southwest 291 335 38,000  Level Washington Center
07:03PM 35.9656 -79.2850 207° Southwest 291 335 38,000  Level Washington Center
07:04PM 35.8931 -79.3328 208° Southwest 291 335 38,000  Level Washington Center
07:05PM 35.8206 -79.3806 208° Southwest 291 335 38,000  Level Washington Center
07:06PM 35.7419 -79.4281 206° Southwest 291 335 38,000  Level Washington Center
07:07PM 35.6758 -79.4708 208° Southwest 291 335 38,000  Level Washington Center
07:08PM 35.5950 -79.5231 208° Southwest 291 335 38,000  Level Washington Center
07:09PM 35.5289 -79.5633 206° Southwest 296 341 38,000  Level Washington Center
07:10PM 35.4542 -79.6106 207° Southwest 296 341 38,000  Level Washington Center
07:11PM 35.3733 -79.6625 208° Southwest 301 346 38,000  Level Washington Center
07:12PM 35.2986 -79.7122 209° Southwest 301 346 38,000  Level Washington Center
07:13PM 35.2239 -79.7567 206° Southwest 306 352 38,000  Level Washington Center
07:14PM 35.1492 -79.8036 207° Southwest 306 352 38,000  Level Washington Center
07:17PM 34.9694 -79.9161 207° Southwest 304 350 38,000  Level Jacksonville Center
07:18PM 34.8975 -79.9617 207° Southwest 304 350 38,000  Level Jacksonville Center
07:19PM 34.8214 -80.0072 206° Southwest 304 350 38,000  Level Jacksonville Center
07:20PM 34.7414 -80.0606 209° Southwest 304 350 38,000  Level Jacksonville Center
07:21PM 34.6714 -80.1081 209° Southwest 304 350 38,000  Level Jacksonville Center
07:22PM 34.5911 -80.1486 203° Southwest 304 350 38,000  Level Jacksonville Center
07:23PM 34.5125 -80.1839 200° South 304 350 38,000  Level Jacksonville Center
07:24PM 34.4361 -80.2189 201° Southwest 304 350 38,000  Level Jacksonville Center
07:25PM 34.3575 -80.2542 200° South 304 350 38,000  Level Jacksonville Center
07:26PM 34.2789 -80.2892 200° South 304 350 38,000  Level Jacksonville Center
07:27PM 34.1983 -80.3292 202° Southwest 309 356 38,000  Level Jacksonville Center
07:28PM 34.1200 -80.3667 202° Southwest 309 356 38,000  Level Jacksonville Center
07:29PM 34.0414 -80.4039 201° Southwest 309 356 38,000  Level Jacksonville Center
07:30PM 33.9608 -80.4389 200° South 309 356 38,000  Level Jacksonville Center
07:31PM 33.8800 -80.4786 202° Southwest 309 356 38,000  Level Jacksonville Center
07:32PM 33.7994 -80.5158 201° Southwest 309 356 38,000  Level Jacksonville Center
07:33PM 33.7167 -80.5506 199° South 309 356 38,000  Level Jacksonville Center
07:34PM 33.6381 -80.5875 201° Southwest 309 356 38,000  Level Jacksonville Center
07:35PM 33.5594 -80.6244 201° Southwest 309 356 38,000  Level Jacksonville Center
07:36PM 33.4786 -80.6614 201° Southwest 309 356 38,000  Level Jacksonville Center
07:37PM 33.3958 -80.6983 200° South 309 356 38,000  Level Jacksonville Center
07:38PM 33.3172 -80.7350 201° Southwest 309 356 38,000  Level Jacksonville Center
07:39PM 33.2383 -80.7717 201° Southwest 309 356 38,000  Level Jacksonville Center
07:40PM 33.1575 -80.8058 199° South 309 356 38,000  Level Jacksonville Center
07:41PM 33.0789 -80.8450 203° Southwest 309 356 38,000  Level Jacksonville Center
07:42PM 33.0003 -80.8789 200° South 309 356 38,000  Level Jacksonville Center
07:43PM 32.9297 -80.9125 202° Southwest 309 356 38,000  Level Jacksonville Center
07:44PM 32.8508 -80.9464 200° South 309 356 38,000  Level Jacksonville Center
07:45PM 32.7722 -80.9828 201° Southwest 309 356 38,000  Level Jacksonville Center
07:46PM 32.6911 -81.0167 199° South 309 356 38,000  Level Jacksonville Center
07:47PM 32.6042 -81.0553 201° Southwest 309 356 38,000  Level Jacksonville Center
07:48PM 32.5253 -81.0914 201° Southwest 309 356 38,000  Level Jacksonville Center
07:49PM 32.4569 -81.1247 202° Southwest 309 356 38,000  Level Jacksonville Center
07:50PM 32.3758 -81.1583 199° South 303 349 38,000  Level Jacksonville Center
07:51PM 32.2950 -81.1944 201° Southwest 310 357 38,000  Level Jacksonville Center
07:52PM 32.2161 -81.2278 200° South 305 351 38,000  Level Jacksonville Center
07:53PM 32.1372 -81.2633 201° Southwest 305 351 38,000  Level Jacksonville Center
07:54PM 32.0583 -81.2942 198° South 305 351 38,000  Level Jacksonville Center
07:55PM 31.9750 -81.3178 194° South 310 357 38,000  Level Jacksonville Center
07:56PM 31.8919 -81.3411 193° South 310 357 38,000  Level Jacksonville Center
07:57PM 31.8044 -81.3694 195° South 305 351 38,000  Level Jacksonville Center
07:58PM 31.7172 -81.3956 194° South 310 357 38,000  Level Jacksonville Center
07:59PM 31.6381 -81.4186 194° South 309 356 38,000  Level Jacksonville Center
08:00PM 31.5611 -81.4394 193° South 314 361 38,000  Level Jacksonville Center
08:01PM 31.4717 -81.4653 194° South 314 361 38,000  Level Jacksonville Center
08:02PM 31.3864 -81.4908 194° South 314 361 38,000  Level Jacksonville Center
08:03PM 31.3031 -81.5139 193° South 314 361 38,000  Level Jacksonville Center
08:04PM 31.2197 -81.5394 195° South 314 361 38,000  Level Jacksonville Center
08:05PM 31.1344 -81.5625 193° South 314 361 38,000  Level Jacksonville Center
08:06PM 31.0533 -81.5856 194° South 314 361 38,000  Level Jacksonville Center
08:07PM 30.9700 -81.6108 195° South 314 361 38,000  Level Jacksonville Center
08:08PM 30.8889 -81.6339 194° South 314 361 38,000  Level Jacksonville Center
08:09PM 30.8033 -81.6567 193° South 314 361 38,000  Level Jacksonville Center
08:10PM 30.7222 -81.6794 194° South 314 361 38,000  Level Jacksonville Center
08:11PM 30.6408 -81.7022 194° South 314 361 38,000 -420 Level Jacksonville Center
08:12PM 30.5556 -81.7275 194° South 314 361 37,200 -960 Descending Jacksonville Center
08:13PM 30.4619 -81.7478 191° South 326 375 36,100 -1,080 Descending Jacksonville Center
08:14PM 30.3639 -81.7756 194° South 349 402 35,100 -1,080 Descending Jacksonville Center
08:15PM 30.2703 -81.8031 194° South 354 407 34,000 -1,080 Descending Jacksonville Center
08:16PM 30.1786 -81.8281 193° South 354 407 33,000 -1,020 Descending Jacksonville Center
08:17PM 30.0889 -81.8531 194° South 335 386 32,000 -960 Descending Jacksonville Center
08:18PM 30.0097 -81.8781 195° South 335 386 31,100 -960 Descending Jacksonville Center
08:19PM 29.9181 -81.9006 192° South 335 386 30,100 -1,020 Descending Jacksonville Center
08:20PM 29.8286 -81.9253 193° South 335 386 29,100 -1,560 Descending Jacksonville Center
08:21PM 29.7369 -81.9503 193° South 335 386 27,000 -2,040 Descending Jacksonville Center
08:22PM 29.6431 -81.9750 193° South 340 391 25,100 -1,860 Descending Jacksonville Center
08:23PM 29.5578 -81.9947 191° South 335 386 23,300 -1,800 Descending Jacksonville Center
08:24PM 29.4703 -82.0172 193° South 330 380 21,600 -1,800 Descending Jacksonville Center
08:25PM 29.3825 -82.0369 191° South 330 380 19,800 -1,800 Descending Jacksonville Center
08:26PM 29.2972 -82.0592 193° South 325 374 18,100 -1,740 Descending Jacksonville Center
08:27PM 29.2158 -82.0789 192° South 312 359 16,400 -1,740 Descending Jacksonville Center
08:28PM 29.1389 -82.1008 194° South 301 346 14,700 -1,200 Descending Jacksonville Center
08:29PM 29.0617 -82.1206 193° South 289 333 14,000 -660 Descending Jacksonville Center
08:30PM 28.9825 -82.1400 192° South 289 333 13,400 -960 Descending Jacksonville Center
08:31PM 28.8972 -82.1717 198° South 295 339 12,100 -780 Descending Jacksonville Center
08:33PM 28.7500 -82.2500 205° Southwest 264 304 11,000 -360 Descending Tampa TRACON
08:34PM 28.6833 -82.2833 204° Southwest 272 313 11,000  Level Tampa TRACON
08:35PM 28.6167 -82.3333 213° Southwest 276 318 11,000 -120 Level Tampa TRACON
08:36PM 28.5667 -82.3833 221° Southwest 273 314 10,800 -900 Descending Tampa TRACON
08:37PM 28.5167 -82.4500 230° Southwest 266 306 9,200 -1,440 Descending Tampa TRACON
08:38PM 28.4667 -82.5000 221° Southwest 260 299 8,000 -660 Descending Tampa TRACON
08:39PM 28.4167 -82.5667 230° Southwest 251 289 7,900 -1,080 Descending Tampa TRACON
08:40PM 28.3667 -82.6167 221° Southwest 246 283 6,000 -960 Descending Tampa TRACON
08:41PM 28.3167 -82.6833 230° Southwest 225 259 6,000 -660 Level Tampa TRACON
08:42PM 28.2667 -82.7167 210° Southwest 209 241 4,600 -1,380 Descending Tampa TRACON
08:43PM 28.2167 -82.7333 196° South 191 220 3,000 -840 Descending Tampa TRACON
08:44PM 28.1667 -82.7333 180° South 180 207 3,000  Level Tampa TRACON
08:45PM 28.1167 -82.7333 180° South 182 209 3,000 -60 Level Tampa TRACON
08:46PM 28.0667 -82.7167 164° South 181 208 2,900 -540 Descending Tampa TRACON
08:47PM 28.0167 -82.7167 180° South 182 209 2,000 -900 Descending Tampa TRACON
08:48PM 27.9833 -82.7000 156° South 158 182 1,100 -720 Descending Tampa TRACON
08:49PM 27.9500 -82.7000 180° South 125 144 500 -600 Descending Tampa TRACON
08:51PM 27.9100 -82.6875 199° South  Level Estimated
08:58PM 27.9100 -82.6875 199° South  Level Estimated
08:59PM 27.9100 -82.6875 199° South  Level Estimated